createdAt,value
2023-04-20T00:00:54.459Z,9.39
2023-04-20T00:03:21.329Z,9.43
2023-04-20T00:05:51.216Z,9.57
2023-04-20T00:08:17.690Z,9.55
2023-04-20T00:10:45.307Z,9.51
2023-04-20T00:13:12.233Z,9.56
2023-04-20T00:15:38.814Z,9.58
2023-04-20T00:18:05.277Z,9.65
2023-04-20T00:20:32.063Z,9.66
2023-04-20T00:22:58.411Z,9.70
2023-04-20T00:25:24.741Z,9.68
2023-04-20T00:27:51.180Z,9.71
2023-04-20T00:30:17.558Z,9.59
2023-04-20T00:32:43.909Z,9.59
2023-04-20T00:35:10.302Z,9.64
2023-04-20T00:37:36.660Z,9.68
2023-04-20T00:40:03.993Z,9.77
2023-04-20T00:42:30.674Z,9.72
2023-04-20T00:44:57.081Z,9.68
2023-04-20T00:47:23.550Z,9.65
2023-04-20T00:49:50.409Z,9.41
2023-04-20T00:52:16.897Z,9.23
2023-04-20T00:54:43.563Z,9.29
2023-04-20T00:57:13.238Z,9.41
2023-04-20T00:59:40.657Z,9.36
2023-04-20T01:02:07.607Z,9.26
2023-04-20T01:04:36.199Z,9.27
2023-04-20T01:07:03.470Z,9.11
2023-04-20T01:09:29.817Z,9.10
2023-04-20T01:11:56.712Z,9.16
2023-04-20T01:14:23.431Z,9.15
2023-04-20T01:16:51.958Z,9.01
2023-04-20T01:19:18.699Z,9.04
2023-04-20T01:21:45.406Z,9.05
2023-04-20T01:24:11.698Z,9.08
2023-04-20T01:26:38.056Z,9.00
2023-04-20T01:29:04.879Z,9.11
2023-04-20T01:31:31.631Z,9.03
2023-04-20T01:33:58.405Z,9.02
2023-04-20T01:36:24.751Z,9.05
2023-04-20T01:38:52.671Z,9.03
2023-04-20T01:41:19.244Z,8.92
2023-04-20T01:43:45.668Z,8.98
2023-04-20T01:46:12.231Z,8.97
2023-04-20T01:48:38.689Z,8.93
2023-04-20T01:51:05.263Z,9.05
2023-04-20T01:53:31.662Z,9.02
2023-04-20T01:55:58.891Z,9.02
2023-04-20T01:58:25.354Z,8.89
2023-04-20T02:00:51.850Z,8.98
2023-04-20T02:03:18.666Z,9.04
2023-04-20T02:05:45.165Z,9.12
2023-04-20T02:08:11.583Z,9.24
2023-04-20T02:10:37.950Z,9.32
2023-04-20T02:13:04.288Z,9.43
2023-04-20T02:15:30.861Z,9.49
2023-04-20T02:17:57.451Z,9.55
2023-04-20T02:20:24.530Z,9.61
2023-04-20T02:22:50.943Z,9.66
2023-04-20T02:25:18.005Z,9.61
2023-04-20T02:27:44.511Z,9.63
2023-04-20T02:30:11.714Z,9.67
2023-04-20T02:32:38.124Z,9.67
2023-04-20T02:35:04.788Z,9.70
2023-04-20T02:37:31.478Z,9.65
2023-04-20T02:39:57.883Z,9.65
2023-04-20T02:42:24.254Z,9.66
2023-04-20T02:44:52.641Z,9.63
2023-04-20T02:47:19.221Z,9.59
2023-04-20T02:49:45.952Z,9.56
2023-04-20T02:52:12.359Z,9.54
2023-04-20T02:54:38.787Z,9.44
2023-04-20T02:57:05.287Z,9.38
2023-04-20T02:59:31.818Z,9.35
2023-04-20T03:01:58.222Z,9.23
2023-04-20T03:04:25.889Z,9.21
2023-04-20T03:06:53.666Z,9.28
2023-04-20T03:09:20.235Z,9.37
2023-04-20T03:11:46.629Z,9.36
2023-04-20T03:14:13.029Z,9.37
2023-04-20T03:16:39.409Z,9.31
2023-04-20T03:19:05.723Z,9.36
2023-04-20T03:21:33.157Z,9.44
2023-04-20T03:24:00.578Z,9.44
2023-04-20T03:26:27.661Z,9.40
2023-04-20T03:28:54.107Z,9.39
2023-04-20T03:31:20.570Z,9.37
2023-04-20T03:33:46.937Z,9.38
2023-04-20T03:36:13.498Z,9.38
2023-04-20T03:38:39.819Z,9.41
2023-04-20T03:41:08.052Z,9.37
2023-04-20T03:43:34.839Z,9.32
2023-04-20T03:46:01.239Z,9.31
2023-04-20T03:48:28.020Z,9.32
2023-04-20T03:50:54.446Z,9.32
2023-04-20T03:53:21.098Z,9.32
2023-04-20T03:55:47.442Z,9.28
2023-04-20T03:58:13.926Z,9.20
2023-04-20T04:00:40.287Z,9.10
2023-04-20T04:03:06.946Z,9.13
2023-04-20T04:05:33.631Z,9.22
2023-04-20T04:08:00.159Z,9.18
2023-04-20T04:10:26.844Z,9.11
2023-04-20T04:12:53.257Z,9.16
2023-04-20T04:15:19.786Z,9.10
2023-04-20T04:17:46.309Z,9.09
2023-04-20T04:20:13.100Z,8.92
2023-04-20T04:22:40.911Z,8.97
2023-04-20T04:25:07.775Z,8.80
2023-04-20T04:27:37.509Z,8.75
2023-04-20T04:30:04.894Z,8.69
2023-04-20T04:32:31.344Z,8.72
2023-04-20T04:34:57.908Z,8.66
2023-04-20T04:37:24.416Z,8.68
2023-04-20T04:39:51.211Z,8.56
2023-04-20T04:42:17.678Z,8.65
2023-04-20T04:44:44.861Z,8.67
2023-04-20T04:47:11.908Z,8.57
2023-04-20T04:49:40.604Z,8.54
2023-04-20T04:52:08.722Z,8.64
2023-04-20T04:54:35.224Z,8.68
2023-04-20T04:57:01.627Z,8.81
2023-04-20T04:59:28.054Z,8.77
2023-04-20T05:01:54.491Z,8.55
2023-04-20T05:04:20.921Z,8.56
2023-04-20T05:06:47.332Z,8.58
2023-04-20T05:09:13.731Z,8.60
2023-04-20T05:11:40.101Z,8.64
2023-04-20T05:14:06.445Z,8.52
2023-04-20T05:16:32.967Z,8.63
2023-04-20T05:18:59.285Z,8.75
2023-04-20T05:21:26.174Z,8.78
2023-04-20T05:23:52.845Z,8.80
2023-04-20T05:26:19.228Z,8.86
2023-04-20T05:28:45.660Z,8.61
2023-04-20T05:31:12.179Z,8.46
2023-04-20T05:33:38.553Z,8.42
2023-04-20T05:36:09.105Z,8.44
2023-04-20T05:38:35.666Z,8.49
2023-04-20T05:41:02.074Z,8.51
2023-04-20T05:43:28.569Z,8.65
2023-04-20T05:45:54.939Z,8.62
2023-04-20T05:48:21.396Z,8.64
2023-04-20T05:50:48.743Z,8.77
2023-04-20T05:53:15.079Z,8.73
2023-04-20T05:55:41.571Z,8.80
2023-04-20T05:58:08.021Z,8.68
2023-04-20T06:00:34.409Z,8.50
2023-04-20T06:03:01.230Z,8.32
2023-04-20T06:05:27.912Z,8.46
2023-04-20T06:07:54.242Z,8.56
2023-04-20T06:10:20.922Z,8.55
2023-04-20T06:12:47.772Z,8.48
2023-04-20T06:15:14.101Z,8.43
2023-04-20T06:17:41.239Z,8.42
2023-04-20T06:20:11.741Z,8.44
2023-04-20T06:22:43.888Z,8.56
2023-04-20T06:25:10.628Z,8.45
2023-04-20T06:27:37.190Z,8.40
2023-04-20T06:30:04.156Z,8.33
2023-04-20T06:32:30.558Z,8.31
2023-04-20T06:34:57.013Z,8.20
2023-04-20T06:37:23.375Z,8.34
2023-04-20T06:39:54.389Z,8.26
2023-04-20T06:42:21.375Z,8.15
2023-04-20T06:44:47.716Z,8.27
2023-04-20T06:47:14.093Z,8.38
2023-04-20T06:49:40.619Z,8.54
2023-04-20T06:52:06.999Z,8.44
2023-04-20T06:54:33.422Z,8.51
2023-04-20T06:57:00.816Z,8.42
2023-04-20T06:59:27.178Z,8.36
2023-04-20T07:01:53.560Z,8.44
2023-04-20T07:04:20.029Z,8.45
2023-04-20T07:06:46.610Z,8.52
2023-04-20T07:09:13.037Z,8.49
2023-04-20T07:11:39.348Z,8.61
2023-04-20T07:14:05.843Z,8.76
2023-04-20T07:16:32.281Z,8.57
2023-04-20T07:18:58.594Z,8.45
2023-04-20T07:21:24.978Z,8.51
2023-04-20T07:23:51.333Z,8.70
2023-04-20T07:26:18.834Z,8.62
2023-04-20T07:28:45.167Z,8.85
2023-04-20T07:31:11.495Z,8.92
2023-04-20T07:33:37.894Z,8.87
2023-04-20T07:36:06.163Z,8.84
2023-04-20T07:38:32.554Z,8.88
2023-04-20T07:40:59.794Z,8.82
2023-04-20T07:43:26.173Z,8.79
2023-04-20T07:45:52.622Z,8.53
2023-04-20T07:48:19.036Z,8.60
2023-04-20T07:50:46.355Z,8.57
2023-04-20T07:53:12.894Z,8.63
2023-04-20T07:55:39.215Z,8.53
2023-04-20T07:58:06.013Z,8.54
2023-04-20T08:00:32.564Z,8.70
2023-04-20T08:02:59.256Z,8.78
2023-04-20T08:05:26.103Z,8.77
2023-04-20T08:07:52.565Z,8.72
2023-04-20T08:10:19.011Z,8.70
2023-04-20T08:12:46.944Z,8.67
2023-04-20T08:15:14.522Z,8.54
2023-04-20T08:17:40.972Z,8.59
2023-04-20T08:20:08.134Z,8.63
2023-04-20T08:22:34.948Z,8.67
2023-04-20T08:25:01.361Z,8.67
2023-04-20T08:27:29.656Z,8.67
2023-04-20T08:29:56.661Z,8.57
2023-04-20T08:32:25.062Z,8.62
2023-04-20T08:34:51.390Z,8.74
2023-04-20T08:37:18.036Z,8.81
2023-04-20T08:39:44.387Z,8.82
2023-04-20T08:42:11.087Z,8.88
2023-04-20T08:44:37.686Z,8.93
2023-04-20T08:47:04.411Z,9.07
2023-04-20T08:49:32.683Z,9.21
2023-04-20T08:51:59.186Z,9.38
2023-04-20T08:54:25.885Z,9.48
2023-04-20T08:56:52.333Z,9.63
2023-04-20T08:59:18.887Z,9.61
2023-04-20T09:01:45.446Z,9.56
2023-04-20T09:04:22.730Z,9.44
2023-04-20T09:06:51.342Z,9.54
2023-04-20T09:09:18.722Z,9.68
2023-04-20T09:11:45.553Z,9.70
2023-04-20T09:14:14.347Z,9.68
2023-04-20T09:17:00.662Z,9.57
2023-04-20T09:19:28.725Z,9.51
2023-04-20T09:21:58.168Z,9.69
2023-04-20T09:24:33.077Z,9.75
2023-04-20T09:27:02.185Z,9.44
2023-04-20T09:29:30.108Z,9.31
2023-04-20T09:31:56.547Z,8.98
2023-04-20T09:34:23.975Z,8.99
2023-04-20T09:36:54.063Z,9.06
2023-04-20T09:39:22.462Z,9.16
2023-04-20T09:41:50.841Z,9.25
2023-04-20T09:44:19.199Z,9.41
2023-04-20T09:46:46.843Z,9.15
2023-04-20T09:49:14.721Z,9.25
2023-04-20T09:51:46.564Z,9.31
2023-04-20T09:54:14.049Z,9.21
2023-04-20T09:56:41.182Z,9.43
2023-04-20T09:59:08.282Z,9.51
2023-04-20T10:01:36.465Z,9.76
2023-04-20T10:04:07.280Z,9.68
2023-04-20T10:06:35.410Z,9.84
2023-04-20T10:09:05.452Z,10.34
2023-04-20T10:11:49.125Z,10.60
2023-04-20T10:14:26.002Z,10.79
2023-04-20T10:17:01.303Z,10.83
2023-04-20T10:19:44.058Z,10.84
2023-04-20T10:22:25.479Z,10.77
2023-04-20T10:24:51.854Z,10.90
2023-04-20T10:27:19.847Z,10.75
2023-04-20T10:29:46.561Z,10.76
2023-04-20T10:32:29.104Z,10.65
2023-04-20T10:35:10.896Z,10.47
2023-04-20T10:37:48.937Z,10.46
2023-04-20T10:40:15.520Z,10.65
2023-04-20T10:42:43.587Z,10.34
2023-04-20T10:45:11.232Z,10.34
2023-04-20T10:47:40.526Z,10.40
2023-04-20T10:50:12.027Z,10.16
2023-04-20T10:52:40.792Z,10.23
2023-04-20T10:55:20.264Z,10.30
2023-04-20T10:57:46.709Z,10.38
2023-04-20T11:00:17.427Z,10.51
2023-04-20T11:02:51.979Z,10.42
2023-04-20T11:05:20.261Z,10.54
2023-04-20T11:07:58.158Z,10.57
2023-04-20T11:10:45.063Z,10.77
2023-04-20T11:13:22.695Z,11.09
2023-04-20T11:15:49.277Z,11.07
2023-04-20T11:18:15.844Z,10.99
2023-04-20T11:20:54.783Z,10.98
2023-04-20T11:23:22.571Z,10.88
2023-04-20T11:25:51.224Z,10.79
2023-04-20T11:28:18.008Z,10.80
2023-04-20T11:30:44.623Z,10.85
2023-04-20T11:33:11.553Z,10.79
2023-04-20T11:35:40.047Z,11.05
2023-04-20T11:38:07.057Z,11.28
2023-04-20T11:40:34.246Z,11.39
2023-04-20T11:43:00.740Z,11.26
2023-04-20T11:45:27.915Z,11.18
2023-04-20T11:47:55.056Z,11.15
2023-04-20T11:50:22.614Z,11.27
2023-04-20T11:52:49.024Z,11.63
2023-04-20T11:55:15.400Z,12.04
2023-04-20T11:57:41.883Z,12.15
2023-04-20T12:00:09.069Z,12.17
2023-04-20T12:02:35.694Z,12.30
2023-04-20T12:05:02.981Z,12.38
2023-04-20T12:07:29.412Z,12.36
2023-04-20T12:09:55.913Z,12.33
2023-04-20T12:12:23.679Z,12.49
2023-04-20T12:14:50.068Z,12.50
2023-04-20T12:17:16.488Z,12.42
2023-04-20T12:19:42.948Z,12.48
2023-04-20T12:22:09.280Z,12.60
2023-04-20T12:24:35.589Z,12.69
2023-04-20T12:27:03.686Z,12.73
2023-04-20T12:29:32.988Z,13.06
2023-04-20T12:31:59.987Z,13.01
2023-04-20T12:34:26.695Z,12.95
2023-04-20T12:36:53.182Z,12.76
2023-04-20T12:39:19.554Z,12.74
2023-04-20T12:41:45.935Z,13.10
2023-04-20T12:44:13.241Z,13.19
2023-04-20T12:46:39.670Z,13.20
2023-04-20T12:49:06.262Z,13.06
2023-04-20T12:51:32.756Z,13.04
2023-04-20T12:53:59.251Z,13.17
2023-04-20T12:56:25.957Z,13.57
2023-04-20T12:58:52.698Z,13.71
2023-04-20T13:01:19.389Z,13.43
2023-04-20T13:03:46.170Z,13.26
2023-04-20T13:06:14.385Z,12.98
2023-04-20T13:08:41.310Z,12.87
2023-04-20T13:11:07.771Z,12.66
2023-04-20T13:13:34.378Z,13.21
2023-04-20T13:16:00.879Z,13.75
2023-04-20T13:18:27.292Z,13.97
2023-04-20T13:20:53.751Z,14.00
2023-04-20T13:23:20.238Z,13.64
2023-04-20T13:25:46.616Z,13.32
2023-04-20T13:28:14.633Z,13.14
2023-04-20T13:30:41.371Z,12.88
2023-04-20T13:33:07.854Z,13.52
2023-04-20T13:35:34.473Z,13.64
2023-04-20T13:38:01.035Z,14.19
2023-04-20T13:40:27.713Z,14.81
2023-04-20T13:42:54.099Z,14.72
2023-04-20T13:45:20.990Z,14.70
2023-04-20T13:47:47.604Z,14.54
2023-04-20T13:50:14.002Z,14.85
2023-04-20T13:52:40.352Z,14.41
2023-04-20T13:55:07.143Z,14.09
2023-04-20T13:57:33.578Z,13.74
2023-04-20T14:00:00.935Z,13.28
2023-04-20T14:02:29.084Z,13.23
2023-04-20T14:04:56.387Z,12.94
2023-04-20T14:07:22.857Z,13.31
2023-04-20T14:09:49.273Z,13.81
2023-04-20T14:12:15.854Z,14.08
2023-04-20T14:14:42.310Z,14.36
2023-04-20T14:17:09.051Z,14.78
2023-04-20T14:19:35.377Z,14.44
2023-04-20T14:22:01.704Z,14.02
2023-04-20T14:24:28.226Z,13.69
2023-04-20T14:26:54.619Z,13.65
2023-04-20T14:29:22.162Z,13.74
2023-04-20T14:31:48.918Z,14.04
2023-04-20T14:34:15.419Z,14.35
2023-04-20T14:36:41.860Z,14.60
2023-04-20T14:39:08.294Z,14.92
2023-04-20T14:41:34.924Z,14.58
2023-04-20T14:44:01.511Z,14.31
2023-04-20T14:46:28.137Z,13.92
2023-04-20T14:48:54.592Z,13.79
2023-04-20T14:51:21.140Z,13.96
2023-04-20T14:53:48.081Z,13.99
2023-04-20T14:56:14.492Z,14.17
2023-04-20T14:58:42.236Z,14.07
2023-04-20T15:01:08.772Z,14.29
2023-04-20T15:03:35.484Z,14.70
2023-04-20T15:06:02.612Z,15.15
2023-04-20T15:08:29.238Z,15.16
2023-04-20T15:10:56.681Z,14.85
2023-04-20T15:13:23.984Z,15.10
2023-04-20T15:15:52.031Z,15.33
2023-04-20T15:18:19.980Z,15.24
2023-04-20T15:20:46.417Z,15.18
2023-04-20T15:23:12.975Z,14.99
2023-04-20T15:25:39.371Z,14.71
2023-04-20T15:28:05.938Z,14.76
2023-04-20T15:30:32.834Z,14.74
2023-04-20T15:33:05.285Z,14.87
2023-04-20T15:35:32.770Z,14.94
2023-04-20T15:37:59.085Z,15.12
2023-04-20T15:40:27.079Z,15.18
2023-04-20T15:42:55.695Z,14.91
2023-04-20T15:45:22.980Z,14.56
2023-04-20T15:47:49.590Z,14.11
2023-04-20T15:50:16.842Z,14.53
2023-04-20T15:52:43.690Z,14.80
2023-04-20T15:55:10.919Z,14.98
2023-04-20T15:57:37.427Z,15.07
2023-04-20T16:00:04.415Z,15.08
2023-04-20T16:02:31.121Z,15.04
2023-04-20T16:04:57.818Z,15.24
2023-04-20T16:07:24.348Z,15.39
2023-04-20T16:09:50.729Z,15.39
2023-04-20T16:12:17.150Z,15.51
2023-04-20T16:14:43.715Z,15.53
2023-04-20T16:17:10.959Z,15.24
2023-04-20T16:19:37.557Z,15.06
2023-04-20T16:22:03.997Z,14.92
2023-04-20T16:24:30.334Z,14.59
2023-04-20T16:27:00.759Z,14.44
2023-04-20T16:29:27.482Z,14.19
2023-04-20T16:31:53.989Z,14.07
2023-04-20T16:34:20.681Z,14.14
2023-04-20T16:36:47.772Z,13.95
2023-04-20T16:39:14.086Z,14.02
2023-04-20T16:41:40.642Z,14.05
2023-04-20T16:44:06.994Z,13.91
2023-04-20T16:46:33.351Z,13.73
2023-04-20T16:48:59.937Z,13.47
2023-04-20T16:51:26.926Z,13.36
2023-04-20T16:53:53.369Z,13.12
2023-04-20T16:56:19.797Z,13.15
2023-04-20T16:58:46.187Z,13.13
2023-04-20T17:01:13.347Z,13.07
2023-04-20T17:03:39.867Z,13.09
2023-04-20T17:06:09.478Z,12.94
2023-04-20T17:08:37.625Z,12.82
2023-04-20T17:11:04.997Z,12.73
2023-04-20T17:13:32.458Z,12.55
2023-04-20T17:15:58.892Z,12.54
2023-04-20T17:18:25.530Z,12.50
2023-04-20T17:20:52.367Z,12.39
2023-04-20T17:23:19.273Z,12.35
2023-04-20T17:25:47.386Z,12.31
2023-04-20T17:28:14.334Z,12.24
2023-04-20T17:30:41.618Z,12.29
2023-04-20T17:33:12.277Z,12.39
2023-04-20T17:35:39.278Z,12.08
2023-04-20T17:38:05.681Z,11.75
2023-04-20T17:40:32.281Z,11.80
2023-04-20T17:42:58.714Z,11.63
2023-04-20T17:45:25.220Z,11.38
2023-04-20T17:47:53.523Z,11.13
2023-04-20T17:50:20.199Z,10.80
2023-04-20T17:52:46.736Z,10.73
2023-04-20T17:55:13.174Z,10.82
2023-04-20T17:57:39.887Z,10.85
2023-04-20T18:00:08.577Z,11.03
2023-04-20T18:02:35.532Z,10.99
2023-04-20T18:05:01.947Z,10.96
2023-04-20T18:07:28.359Z,11.02
2023-04-20T18:09:54.828Z,10.94
2023-04-20T18:12:21.339Z,10.82
2023-04-20T18:14:47.811Z,10.69
2023-04-20T18:17:14.267Z,10.84
2023-04-20T18:19:41.033Z,10.83
2023-04-20T18:22:07.927Z,10.83
2023-04-20T18:24:34.417Z,10.70
2023-04-20T18:27:01.234Z,10.79
2023-04-20T18:29:28.940Z,10.80
2023-04-20T18:31:58.856Z,10.73
2023-04-20T18:34:29.819Z,10.75
2023-04-20T18:36:56.834Z,10.63
2023-04-20T18:39:24.005Z,10.65
2023-04-20T18:41:50.594Z,10.64
2023-04-20T18:44:17.062Z,10.60
2023-04-20T18:46:43.835Z,10.46
2023-04-20T18:49:10.840Z,10.44
2023-04-20T18:51:37.305Z,10.45
2023-04-20T18:54:04.227Z,10.43
2023-04-20T18:56:30.923Z,10.49
2023-04-20T18:58:59.145Z,10.40
2023-04-20T19:01:25.755Z,10.32
2023-04-20T19:03:52.659Z,10.40
2023-04-20T19:06:19.184Z,10.40
2023-04-20T19:08:45.601Z,10.32
2023-04-20T19:11:12.046Z,10.31
2023-04-20T19:13:44.098Z,10.36
2023-04-20T19:16:11.598Z,10.47
2023-04-20T19:18:38.793Z,10.47
2023-04-20T19:21:05.395Z,10.54
2023-04-20T19:23:31.881Z,10.58
2023-04-20T19:25:58.245Z,10.43
2023-04-20T19:28:24.687Z,10.36
2023-04-20T19:30:51.136Z,10.33
2023-04-20T19:33:17.602Z,10.23
2023-04-20T19:35:48.108Z,10.23
2023-04-20T19:38:14.628Z,10.18
2023-04-20T19:40:41.022Z,10.15
2023-04-20T19:43:07.515Z,10.05
2023-04-20T19:45:33.991Z,10.07
2023-04-20T19:48:00.649Z,10.10
2023-04-20T19:50:27.266Z,10.08
2023-04-20T19:52:53.886Z,10.07
2023-04-20T19:55:20.232Z,10.09
2023-04-20T19:57:46.603Z,10.00
2023-04-20T20:00:13.394Z,10.07
2023-04-20T20:02:41.082Z,9.99
2023-04-20T20:05:08.141Z,10.04
2023-04-20T20:07:35.541Z,10.07
2023-04-20T20:10:02.345Z,9.96
2023-04-20T20:12:28.850Z,10.06
2023-04-20T20:14:55.402Z,10.13
2023-04-20T20:17:22.444Z,10.09
2023-04-20T20:19:49.891Z,10.12
2023-04-20T20:22:16.807Z,10.13
2023-04-20T20:24:44.391Z,10.05
2023-04-20T20:27:11.658Z,10.04
2023-04-20T20:29:38.389Z,9.91
2023-04-20T20:32:04.858Z,9.82
2023-04-20T20:34:31.391Z,9.71
2023-04-20T20:36:58.693Z,9.56
2023-04-20T20:39:25.112Z,9.67
2023-04-20T20:41:51.471Z,9.83
2023-04-20T20:44:19.372Z,9.78
2023-04-20T20:46:46.049Z,9.75
2023-04-20T20:49:12.525Z,9.60
2023-04-20T20:51:39.053Z,9.61
2023-04-20T20:54:05.482Z,9.60
2023-04-20T20:56:31.829Z,9.58
2023-04-20T20:58:58.383Z,9.53
2023-04-20T21:01:24.851Z,9.29
2023-04-20T21:03:51.432Z,9.18
2023-04-20T21:06:18.005Z,9.15
2023-04-20T21:08:44.384Z,9.14
2023-04-20T21:11:10.795Z,9.24
2023-04-20T21:13:37.288Z,9.29
2023-04-20T21:16:03.710Z,9.14
2023-04-20T21:18:30.745Z,9.03
2023-04-20T21:20:57.200Z,9.12
2023-04-20T21:23:23.556Z,9.13
2023-04-20T21:25:49.864Z,9.08
2023-04-20T21:28:16.217Z,9.13
2023-04-20T21:30:42.536Z,9.12
2023-04-20T21:33:08.928Z,9.09
2023-04-20T21:35:35.562Z,9.15
2023-04-20T21:38:01.999Z,9.26
2023-04-20T21:40:28.432Z,9.22
2023-04-20T21:42:55.111Z,9.15
2023-04-20T21:45:21.541Z,9.00
2023-04-20T21:47:47.916Z,8.82
2023-04-20T21:50:14.405Z,8.79
2023-04-20T21:52:40.728Z,8.81
2023-04-20T21:55:07.330Z,8.81
2023-04-20T21:57:33.703Z,8.79
2023-04-20T22:00:00.024Z,8.85
2023-04-20T22:02:26.450Z,8.92
2023-04-20T22:04:53.256Z,9.02
2023-04-20T22:07:20.730Z,9.07
2023-04-20T22:09:47.062Z,9.18
2023-04-20T22:12:13.455Z,9.29
2023-04-20T22:14:39.796Z,9.24
2023-04-20T22:17:06.181Z,9.29
2023-04-20T22:19:32.556Z,9.19
2023-04-20T22:21:58.976Z,9.06
2023-04-20T22:24:25.566Z,9.04
2023-04-20T22:26:51.966Z,8.98
2023-04-20T22:29:18.561Z,8.97
2023-04-20T22:31:45.280Z,9.11
2023-04-20T22:34:12.381Z,9.22
2023-04-20T22:36:39.651Z,9.31
2023-04-20T22:39:06.322Z,9.33
2023-04-20T22:41:32.673Z,9.38
2023-04-20T22:43:58.987Z,9.42
2023-04-20T22:46:25.589Z,9.42
2023-04-20T22:48:52.394Z,9.29
2023-04-20T22:51:18.692Z,9.30
2023-04-20T22:53:45.215Z,9.35
2023-04-20T22:56:11.626Z,9.32
2023-04-20T22:58:37.947Z,9.20
2023-04-20T23:01:04.655Z,9.26
2023-04-20T23:03:32.422Z,9.18
2023-04-20T23:05:59.265Z,9.18
2023-04-20T23:08:26.117Z,9.13
2023-04-20T23:10:55.421Z,9.13
2023-04-20T23:13:22.090Z,9.16
2023-04-20T23:15:49.567Z,9.13
2023-04-20T23:18:16.071Z,9.12
2023-04-20T23:20:42.408Z,9.15
2023-04-20T23:23:10.773Z,9.14
2023-04-20T23:25:37.615Z,9.19
2023-04-20T23:28:04.257Z,9.28
2023-04-20T23:30:30.723Z,9.23
2023-04-20T23:32:57.095Z,9.19
2023-04-20T23:35:23.550Z,9.22
2023-04-20T23:37:50.348Z,9.28
2023-04-20T23:40:16.965Z,9.36
2023-04-20T23:42:43.281Z,9.21
2023-04-20T23:45:10.449Z,9.19
2023-04-20T23:47:36.818Z,9.25
2023-04-20T23:50:03.586Z,9.30
2023-04-20T23:52:30.843Z,9.19
2023-04-20T23:54:57.221Z,9.05
2023-04-20T23:57:23.879Z,9.06
2023-04-20T23:59:50.359Z,8.98
